createdAt,value
2018-07-31T00:00:56.888Z,74.40
2018-07-31T00:03:26.141Z,74.32
2018-07-31T00:05:55.211Z,74.88
2018-07-31T00:08:24.263Z,75.08
2018-07-31T00:10:53.354Z,74.76
2018-07-31T00:13:22.466Z,75.15
2018-07-31T00:15:51.546Z,74.47
2018-07-31T00:18:20.710Z,75.18
2018-07-31T00:20:49.794Z,74.64
2018-07-31T00:23:19.022Z,75.85
2018-07-31T00:25:48.107Z,74.75
2018-07-31T00:28:17.188Z,75.96
2018-07-31T00:30:46.280Z,75.59
2018-07-31T00:33:15.435Z,76.17
2018-07-31T00:35:44.493Z,76.19
2018-07-31T00:38:13.609Z,76.41
2018-07-31T00:40:42.710Z,76.70
2018-07-31T00:43:11.799Z,76.58
2018-07-31T00:45:40.899Z,77.73
2018-07-31T00:48:10.881Z,77.47
2018-07-31T00:50:40.880Z,76.84
2018-07-31T00:53:11.011Z,77.21
2018-07-31T00:55:40.930Z,76.92
2018-07-31T00:58:11.217Z,77.07
2018-07-31T01:00:41.175Z,77.27
2018-07-31T01:03:11.177Z,76.17
2018-07-31T01:05:41.057Z,76.46
2018-07-31T01:08:11.165Z,76.89
2018-07-31T01:10:41.298Z,77.45
2018-07-31T01:13:11.165Z,76.81
2018-07-31T01:15:41.203Z,77.96
2018-07-31T01:18:11.200Z,77.53
2018-07-31T01:20:41.387Z,78.29
2018-07-31T01:23:11.262Z,78.28
2018-07-31T01:25:41.356Z,78.19
2018-07-31T01:28:11.545Z,78.82
2018-07-31T01:30:41.433Z,78.17
2018-07-31T01:33:11.442Z,78.68
2018-07-31T01:35:41.582Z,77.90
2018-07-31T01:38:11.603Z,78.30
2018-07-31T01:40:41.506Z,77.88
2018-07-31T01:43:11.424Z,78.08
2018-07-31T01:45:41.591Z,78.96
2018-07-31T01:48:11.625Z,78.50
2018-07-31T01:50:41.577Z,78.39
2018-07-31T01:53:11.664Z,78.10
2018-07-31T01:55:41.593Z,78.65
2018-07-31T01:58:11.727Z,77.58
2018-07-31T02:00:41.716Z,77.42
2018-07-31T02:03:11.702Z,77.16
2018-07-31T02:05:41.711Z,76.72
2018-07-31T02:08:11.797Z,76.92
2018-07-31T02:10:41.790Z,77.49
2018-07-31T02:13:11.649Z,78.55
2018-07-31T02:15:41.743Z,77.75
2018-07-31T02:18:11.789Z,77.89
2018-07-31T02:20:41.989Z,77.30
2018-07-31T02:23:12.717Z,77.70
2018-07-31T02:25:42.273Z,77.74
2018-07-31T02:28:11.938Z,78.63
2018-07-31T02:30:41.911Z,78.36
2018-07-31T02:33:11.898Z,79.45
2018-07-31T02:35:40.980Z,79.22
2018-07-31T02:38:10.059Z,79.20
2018-07-31T02:40:39.155Z,79.27
2018-07-31T02:43:08.185Z,80.20
2018-07-31T02:45:37.269Z,80.09
2018-07-31T02:48:06.540Z,79.50
2018-07-31T02:50:35.564Z,80.52
2018-07-31T02:53:04.745Z,79.26
2018-07-31T02:55:33.790Z,79.33
2018-07-31T02:58:03.003Z,80.44
2018-07-31T03:00:32.101Z,80.92
2018-07-31T03:03:01.169Z,79.86
2018-07-31T03:05:30.279Z,79.84
2018-07-31T03:07:59.403Z,79.73
2018-07-31T03:10:28.412Z,80.55
2018-07-31T03:12:57.506Z,80.61
2018-07-31T03:15:26.625Z,81.29
2018-07-31T03:17:55.705Z,81.16
2018-07-31T03:20:24.809Z,80.85
2018-07-31T03:22:53.887Z,82.38
2018-07-31T03:25:23.117Z,80.77
2018-07-31T03:27:52.179Z,82.29
2018-07-31T03:30:21.242Z,82.22
2018-07-31T03:32:50.342Z,82.21
2018-07-31T03:35:19.401Z,82.46
2018-07-31T03:37:48.617Z,81.22
2018-07-31T03:40:17.727Z,80.83
2018-07-31T03:42:46.825Z,81.66
2018-07-31T03:45:15.947Z,81.89
2018-07-31T03:47:45.061Z,81.84
2018-07-31T03:50:14.266Z,82.13
2018-07-31T03:52:43.487Z,84.02
2018-07-31T03:55:12.609Z,85.39
2018-07-31T03:57:42.721Z,85.60
2018-07-31T04:00:12.657Z,86.29
2018-07-31T04:02:42.752Z,87.11
2018-07-31T04:05:12.739Z,86.95
2018-07-31T04:07:42.817Z,87.35
2018-07-31T04:10:12.935Z,87.09
2018-07-31T04:12:42.807Z,86.95
2018-07-31T04:15:12.930Z,87.03
2018-07-31T04:17:47.033Z,86.85
2018-07-31T04:20:16.185Z,87.14
2018-07-31T04:22:45.259Z,87.14
2018-07-31T04:25:14.400Z,87.58
2018-07-31T04:27:43.481Z,87.31
2018-07-31T04:30:12.965Z,87.61
2018-07-31T04:32:42.963Z,87.10
2018-07-31T04:35:13.098Z,87.06
2018-07-31T04:37:43.015Z,86.33
2018-07-31T04:40:14.018Z,85.17
2018-07-31T04:42:43.181Z,84.65
2018-07-31T04:45:13.547Z,84.55
2018-07-31T04:47:43.065Z,84.94
2018-07-31T04:50:13.214Z,84.97
2018-07-31T05:12:02.306Z,85.68
2018-07-31T05:14:31.511Z,83.93
2018-07-31T05:17:00.597Z,84.35
2018-07-31T05:19:29.670Z,83.85
2018-07-31T05:21:58.782Z,84.06
2018-07-31T05:24:27.845Z,83.45
2018-07-31T05:26:56.931Z,83.12
2018-07-31T05:29:26.080Z,83.48
2018-07-31T05:31:55.143Z,82.76
2018-07-31T05:34:24.238Z,83.00
2018-07-31T05:36:53.280Z,82.25
2018-07-31T05:39:22.398Z,81.76
2018-07-31T05:41:51.482Z,81.77
2018-07-31T05:44:20.606Z,81.65
2018-07-31T05:46:49.727Z,81.78
2018-07-31T05:49:18.791Z,82.16
2018-07-31T05:51:47.854Z,81.83
2018-07-31T05:54:16.930Z,82.19
2018-07-31T05:56:46.065Z,81.18
2018-07-31T05:59:15.278Z,80.93
2018-07-31T06:01:44.392Z,80.90
2018-07-31T06:04:13.962Z,80.40
2018-07-31T06:06:43.886Z,79.85
2018-07-31T06:09:14.023Z,79.44
2018-07-31T06:11:43.910Z,79.89
2018-07-31T06:16:49.332Z,80.17
2018-07-31T06:19:18.486Z,79.51
2018-07-31T06:21:47.605Z,79.50
2018-07-31T06:24:16.740Z,79.24
2018-07-31T06:26:45.852Z,78.65
2018-07-31T06:29:14.964Z,78.27
2018-07-31T06:31:44.270Z,78.48
2018-07-31T06:34:14.188Z,78.06
2018-07-31T06:36:44.200Z,78.01
2018-07-31T06:39:14.252Z,77.42
2018-07-31T06:41:44.543Z,76.84
2018-07-31T06:44:14.265Z,77.11
2018-07-31T06:46:44.418Z,76.27
2018-07-31T06:49:14.561Z,76.68
2018-07-31T06:51:44.426Z,75.79
2018-07-31T06:54:14.329Z,75.46
2018-07-31T06:56:44.491Z,75.63
2018-07-31T06:59:14.576Z,73.87
2018-07-31T07:01:44.495Z,71.27
2018-07-31T07:04:14.827Z,71.39
2018-07-31T07:06:44.553Z,69.39
2018-07-31T07:09:14.673Z,69.36
2018-07-31T07:11:44.597Z,68.61
2018-07-31T07:14:14.483Z,68.83
2018-07-31T07:16:44.536Z,68.89
2018-07-31T07:19:13.619Z,68.03
2018-07-31T07:21:42.716Z,67.97
2018-07-31T07:24:11.780Z,67.22
2018-07-31T07:26:40.857Z,67.57
2018-07-31T07:29:10.304Z,67.80
2018-07-31T07:31:39.440Z,68.08
2018-07-31T07:34:08.905Z,67.84
2018-07-31T07:36:38.127Z,68.18
2018-07-31T07:39:10.856Z,67.96
2018-07-31T07:41:40.264Z,67.37
2018-07-31T07:44:10.197Z,66.05
2018-07-31T07:46:39.313Z,65.97
2018-07-31T07:49:08.881Z,66.37
2018-07-31T07:51:38.101Z,65.28
2018-07-31T07:54:07.298Z,63.64
2018-07-31T07:56:36.320Z,63.59
2018-07-31T07:59:05.425Z,63.57
2018-07-31T08:01:34.477Z,62.35
2018-07-31T08:04:03.639Z,63.39
2018-07-31T08:06:32.723Z,62.90
2018-07-31T08:09:01.814Z,61.96
2018-07-31T08:11:30.890Z,62.23
2018-07-31T08:13:59.962Z,60.14
2018-07-31T08:16:29.006Z,60.38
2018-07-31T08:18:58.108Z,59.94
2018-07-31T08:21:27.218Z,60.61
2018-07-31T08:23:56.289Z,59.40
2018-07-31T08:26:25.481Z,59.82
2018-07-31T08:28:54.620Z,58.76
2018-07-31T08:31:23.714Z,58.51
2018-07-31T08:33:52.804Z,59.01
2018-07-31T08:36:21.971Z,58.72
2018-07-31T08:38:51.105Z,59.03
2018-07-31T08:41:20.260Z,59.30
2018-07-31T08:43:49.317Z,59.70
2018-07-31T08:46:18.469Z,59.69
2018-07-31T08:48:47.569Z,59.26
2018-07-31T08:51:16.652Z,59.34
2018-07-31T08:53:45.741Z,59.52
2018-07-31T08:56:15.401Z,57.48
2018-07-31T08:58:44.513Z,57.72
2018-07-31T09:01:13.650Z,57.81
2018-07-31T09:03:42.883Z,55.52
2018-07-31T09:06:11.967Z,56.55
2018-07-31T09:08:41.263Z,58.56
2018-07-31T09:11:10.274Z,56.99
2018-07-31T09:13:39.532Z,55.02
2018-07-31T09:16:08.604Z,56.24
2018-07-31T09:18:38.346Z,58.21
2018-07-31T09:21:07.417Z,54.65
2018-07-31T09:23:36.531Z,57.13
2018-07-31T09:26:05.663Z,55.44
2018-07-31T09:28:35.313Z,56.35
2018-07-31T09:31:09.623Z,55.72
2018-07-31T09:33:38.684Z,54.33
2018-07-31T09:36:08.672Z,52.96
2018-07-31T09:38:37.836Z,52.90
2018-07-31T09:41:07.061Z,52.77
2018-07-31T09:43:36.332Z,53.30
2018-07-31T09:46:05.451Z,52.32
2018-07-31T09:48:34.566Z,49.95
2018-07-31T09:51:03.600Z,51.95
2018-07-31T09:53:32.716Z,51.37
2018-07-31T09:56:01.790Z,51.83
2018-07-31T09:58:30.901Z,50.25
2018-07-31T10:01:05.261Z,48.88
2018-07-31T10:03:34.376Z,47.75
2018-07-31T10:06:03.468Z,49.42
2018-07-31T10:08:32.598Z,49.27
2018-07-31T10:11:01.667Z,50.10
2018-07-31T10:13:30.760Z,47.12
2018-07-31T10:15:59.854Z,45.51
2018-07-31T10:18:28.933Z,47.10
2018-07-31T10:20:58.047Z,45.74
2018-07-31T10:23:27.116Z,45.32
2018-07-31T10:25:56.226Z,46.20
2018-07-31T10:28:25.369Z,44.73
2018-07-31T10:30:54.541Z,43.23
2018-07-31T10:33:23.551Z,43.48
2018-07-31T10:35:52.627Z,45.51
2018-07-31T10:38:21.802Z,42.06
2018-07-31T10:40:50.946Z,45.02
2018-07-31T10:43:20.026Z,43.86
2018-07-31T10:45:49.179Z,43.79
2018-07-31T10:48:18.302Z,43.59
2018-07-31T10:50:47.350Z,43.41
2018-07-31T10:53:16.702Z,44.90
2018-07-31T10:55:46.771Z,45.58
2018-07-31T10:58:16.876Z,43.46
2018-07-31T11:00:46.927Z,43.52
2018-07-31T11:03:16.819Z,42.84
2018-07-31T11:05:46.982Z,42.53
2018-07-31T11:08:16.864Z,42.54
2018-07-31T11:10:46.986Z,42.25
2018-07-31T11:13:16.878Z,42.53
2018-07-31T11:15:46.938Z,41.50
2018-07-31T11:18:16.923Z,42.88
2018-07-31T11:20:47.027Z,46.16
2018-07-31T11:23:16.940Z,44.35
2018-07-31T11:25:47.061Z,42.52
2018-07-31T11:28:17.004Z,42.10
2018-07-31T11:30:47.153Z,42.59
2018-07-31T11:33:16.205Z,41.41
2018-07-31T11:35:45.347Z,40.62
2018-07-31T11:38:14.469Z,41.46
2018-07-31T11:40:43.543Z,40.58
2018-07-31T11:43:12.643Z,39.53
2018-07-31T11:45:41.736Z,40.26
2018-07-31T11:48:11.123Z,40.10
2018-07-31T11:50:40.192Z,40.17
2018-07-31T11:53:09.363Z,40.01
2018-07-31T11:55:38.481Z,36.73
2018-07-31T11:58:07.613Z,39.95
2018-07-31T12:00:36.638Z,36.59
2018-07-31T12:03:05.771Z,40.02
2018-07-31T12:05:34.840Z,38.90
2018-07-31T12:08:03.896Z,38.12
2018-07-31T12:10:32.998Z,38.29
2018-07-31T12:13:02.098Z,39.16
2018-07-31T12:15:31.286Z,38.42
2018-07-31T12:18:00.363Z,36.49
2018-07-31T12:20:29.436Z,37.92
2018-07-31T12:22:58.535Z,38.79
2018-07-31T12:25:27.582Z,37.89
2018-07-31T12:27:56.669Z,36.45
2018-07-31T12:30:25.753Z,35.82
2018-07-31T12:32:55.020Z,36.90
2018-07-31T12:35:23.975Z,34.36
2018-07-31T12:37:53.415Z,35.39
2018-07-31T12:40:22.241Z,34.81
2018-07-31T12:42:51.510Z,36.53
2018-07-31T12:45:20.668Z,38.83
2018-07-31T12:47:49.777Z,35.55
2018-07-31T12:50:19.129Z,35.86
2018-07-31T12:52:49.067Z,37.13
2018-07-31T12:55:19.074Z,35.42
2018-07-31T12:57:49.185Z,36.77
2018-07-31T13:00:19.175Z,35.77
2018-07-31T13:02:49.283Z,38.01
2018-07-31T13:05:19.407Z,35.91
2018-07-31T13:07:49.484Z,37.29
2018-07-31T13:10:19.230Z,36.94
2018-07-31T13:12:49.320Z,37.22
2018-07-31T13:15:19.456Z,36.49
2018-07-31T13:17:49.473Z,35.65
2018-07-31T13:20:19.491Z,35.30
2018-07-31T13:22:49.477Z,36.44
2018-07-31T13:25:19.547Z,38.33
2018-07-31T13:27:50.301Z,36.05
2018-07-31T13:30:19.776Z,33.67
2018-07-31T13:32:49.687Z,35.46
2018-07-31T13:35:19.606Z,35.46
2018-07-31T13:37:49.721Z,34.39
2018-07-31T13:40:19.878Z,34.72
2018-07-31T13:42:49.764Z,34.93
2018-07-31T13:45:19.690Z,34.18
2018-07-31T13:47:49.692Z,33.57
2018-07-31T13:50:18.790Z,34.20
2018-07-31T13:52:47.887Z,36.61
2018-07-31T13:55:17.096Z,33.93
2018-07-31T13:57:46.053Z,31.56
2018-07-31T14:00:15.168Z,31.34
2018-07-31T14:02:44.226Z,32.54
2018-07-31T14:05:13.306Z,30.00
2018-07-31T14:07:42.395Z,32.92
2018-07-31T14:10:11.472Z,31.68
2018-07-31T14:12:40.641Z,34.03
2018-07-31T14:15:09.761Z,31.94
2018-07-31T14:17:38.876Z,30.83
2018-07-31T14:20:07.949Z,31.70
2018-07-31T14:22:37.613Z,31.74
2018-07-31T14:25:06.743Z,31.17
2018-07-31T14:27:35.864Z,32.13
2018-07-31T14:30:05.950Z,31.79
2018-07-31T14:32:35.045Z,32.73
2018-07-31T14:35:04.145Z,34.42
2018-07-31T14:37:33.243Z,34.08
2018-07-31T14:40:02.359Z,32.76
2018-07-31T14:42:31.444Z,32.66
2018-07-31T14:45:00.876Z,33.38
2018-07-31T14:47:29.926Z,33.77
2018-07-31T14:49:59.287Z,32.61
2018-07-31T14:52:28.398Z,34.01
2018-07-31T14:54:57.502Z,34.13
2018-07-31T14:57:26.539Z,31.14
2018-07-31T14:59:55.672Z,31.55
2018-07-31T15:02:24.853Z,30.02
2018-07-31T15:04:54.000Z,31.84
2018-07-31T15:07:23.126Z,27.96
2018-07-31T15:09:52.226Z,26.84
2018-07-31T15:12:21.283Z,29.37
2018-07-31T15:14:50.522Z,26.91
2018-07-31T15:17:20.599Z,27.88
2018-07-31T15:19:50.692Z,27.18
2018-07-31T15:22:20.668Z,29.05
2018-07-31T15:24:50.615Z,28.15
2018-07-31T15:27:19.675Z,27.83
2018-07-31T15:29:48.721Z,29.33
2018-07-31T15:32:17.833Z,28.05
2018-07-31T15:34:47.147Z,27.88
2018-07-31T15:37:16.206Z,28.33
2018-07-31T15:39:45.263Z,29.17
2018-07-31T15:42:14.385Z,28.02
2018-07-31T15:44:43.439Z,29.95
2018-07-31T15:47:12.553Z,28.51
2018-07-31T15:49:41.632Z,28.76
2018-07-31T15:52:10.734Z,29.14
2018-07-31T15:54:39.839Z,28.00
2018-07-31T15:57:08.944Z,26.62
2018-07-31T15:59:38.051Z,28.86
2018-07-31T16:02:07.932Z,29.33
2018-07-31T16:04:37.063Z,29.69
2018-07-31T16:07:06.184Z,29.84
2018-07-31T16:09:35.225Z,26.72
2018-07-31T16:12:04.381Z,28.06
2018-07-31T16:14:33.451Z,27.02
2018-07-31T16:17:02.548Z,27.18
2018-07-31T16:19:31.632Z,28.48
2018-07-31T16:22:00.718Z,29.35
2018-07-31T16:24:29.788Z,29.02
2018-07-31T16:26:59.179Z,29.82
2018-07-31T16:29:28.309Z,30.26
2018-07-31T16:31:57.453Z,30.26
2018-07-31T16:34:26.550Z,31.17
2018-07-31T16:36:55.600Z,32.34
2018-07-31T16:39:24.757Z,32.94
2018-07-31T16:41:53.852Z,32.39
2018-07-31T16:44:22.882Z,31.44
2018-07-31T16:46:52.005Z,31.55
2018-07-31T16:49:21.643Z,31.82
2018-07-31T16:51:51.790Z,32.52
2018-07-31T16:54:21.695Z,32.58
2018-07-31T16:56:51.824Z,32.05
2018-07-31T16:59:21.749Z,32.75
2018-07-31T17:01:52.050Z,32.20
2018-07-31T17:04:21.912Z,34.07
2018-07-31T17:06:51.903Z,32.62
2018-07-31T17:09:21.840Z,33.04
2018-07-31T17:11:51.996Z,32.56
2018-07-31T17:14:22.715Z,33.66
2018-07-31T17:16:51.966Z,33.26
2018-07-31T17:19:22.469Z,33.45
2018-07-31T17:21:51.999Z,34.73
2018-07-31T17:24:22.135Z,33.75
2018-07-31T17:26:52.225Z,34.00
2018-07-31T17:29:22.190Z,33.54
2018-07-31T17:31:52.392Z,34.97
2018-07-31T17:34:22.625Z,34.94
2018-07-31T17:36:52.105Z,36.24
2018-07-31T17:58:41.257Z,35.65
2018-07-31T18:01:12.547Z,37.10
2018-07-31T18:03:42.040Z,36.88
2018-07-31T18:06:11.498Z,37.96
2018-07-31T18:08:40.591Z,37.58
2018-07-31T18:11:09.750Z,37.90
2018-07-31T18:13:38.934Z,38.27
2018-07-31T18:16:08.085Z,39.58
2018-07-31T18:18:37.525Z,39.31
2018-07-31T18:21:06.818Z,39.96
2018-07-31T18:23:36.131Z,40.33
2018-07-31T18:26:05.532Z,41.05
2018-07-31T18:28:34.639Z,41.98
2018-07-31T18:31:03.784Z,42.44
2018-07-31T18:33:32.876Z,43.45
2018-07-31T18:37:38.338Z,42.97
2018-07-31T18:40:08.142Z,44.89
2018-07-31T18:42:37.368Z,44.10
2018-07-31T18:45:06.671Z,45.08
2018-07-31T18:47:36.082Z,45.28
2018-07-31T18:50:05.589Z,45.81
2018-07-31T18:52:34.784Z,46.59
2018-07-31T18:55:04.126Z,46.30
2018-07-31T18:57:33.394Z,47.49
2018-07-31T19:00:02.793Z,48.19
2018-07-31T19:02:32.133Z,47.58
2018-07-31T19:05:01.427Z,48.61
2018-07-31T19:07:30.941Z,48.23
2018-07-31T19:10:00.358Z,48.37
2018-07-31T19:12:29.572Z,48.63
2018-07-31T19:14:58.779Z,48.98
2018-07-31T19:17:28.037Z,49.50
2018-07-31T19:19:57.419Z,50.16
2018-07-31T19:22:26.698Z,50.73
2018-07-31T19:24:55.948Z,50.96
2018-07-31T19:27:25.207Z,51.17
2018-07-31T19:29:54.744Z,51.02
2018-07-31T19:32:24.619Z,52.28
2018-07-31T19:34:54.860Z,52.87
2018-07-31T19:37:24.813Z,52.88
2018-07-31T19:39:54.866Z,51.90
2018-07-31T19:42:24.712Z,53.03
2018-07-31T19:44:54.708Z,52.31
2018-07-31T19:47:24.779Z,52.60
2018-07-31T19:49:54.980Z,53.07
2018-07-31T19:52:24.743Z,53.58
2018-07-31T19:54:55.019Z,54.03
2018-07-31T19:57:24.997Z,55.34
2018-07-31T19:59:54.934Z,54.85
2018-07-31T20:02:24.830Z,56.40
2018-07-31T20:04:55.228Z,55.71
2018-07-31T20:07:24.998Z,56.62
2018-07-31T20:09:55.381Z,57.41
2018-07-31T20:12:25.030Z,57.27
2018-07-31T20:14:55.070Z,57.55
2018-07-31T20:17:25.209Z,57.26
2018-07-31T20:19:54.633Z,58.85
2018-07-31T20:22:23.969Z,59.08
2018-07-31T20:24:53.101Z,58.91
2018-07-31T20:27:22.546Z,59.54
2018-07-31T20:29:51.907Z,58.54
2018-07-31T20:32:21.106Z,58.72
2018-07-31T20:34:50.676Z,59.33
2018-07-31T20:37:20.005Z,58.70
2018-07-31T20:39:49.364Z,58.96
2018-07-31T20:42:18.537Z,59.03
2018-07-31T20:44:47.742Z,60.08
2018-07-31T20:47:16.931Z,60.06
2018-07-31T20:49:46.258Z,60.87
2018-07-31T20:52:15.573Z,59.57
2018-07-31T20:54:44.906Z,60.49
2018-07-31T20:57:14.336Z,61.32
2018-07-31T20:59:43.564Z,59.96
2018-07-31T21:02:12.864Z,61.92
2018-07-31T21:04:42.109Z,61.50
2018-07-31T21:07:11.326Z,61.74
2018-07-31T21:09:40.544Z,61.46
2018-07-31T21:12:09.819Z,62.09
2018-07-31T21:14:39.020Z,62.22
2018-07-31T21:17:08.224Z,62.54
2018-07-31T21:19:37.536Z,62.04
2018-07-31T21:22:06.775Z,62.36
2018-07-31T21:24:36.013Z,62.11
2018-07-31T21:27:05.230Z,62.91
2018-07-31T21:29:34.414Z,62.98
2018-07-31T21:32:03.637Z,62.97
2018-07-31T21:34:32.846Z,63.24
2018-07-31T21:37:02.248Z,63.30
2018-07-31T21:39:31.408Z,63.24
2018-07-31T21:42:00.625Z,64.32
2018-07-31T21:44:29.906Z,65.00
2018-07-31T21:46:59.621Z,65.08
2018-07-31T21:49:28.945Z,65.34
2018-07-31T21:51:58.271Z,64.76
2018-07-31T21:54:27.702Z,65.17
2018-07-31T21:56:57.041Z,65.08
2018-07-31T21:59:26.258Z,64.92
2018-07-31T22:01:56.030Z,65.09
2018-07-31T22:04:26.116Z,64.43
2018-07-31T22:06:56.255Z,65.24
2018-07-31T22:09:36.222Z,66.04
2018-07-31T22:12:05.835Z,65.67
2018-07-31T22:14:35.344Z,64.89
2018-07-31T22:17:04.804Z,63.87
2018-07-31T22:19:34.467Z,63.89
2018-07-31T22:22:03.838Z,64.49
2018-07-31T22:24:33.453Z,65.27
2018-07-31T22:27:02.925Z,65.37
2018-07-31T22:29:32.340Z,64.69
2018-07-31T22:32:01.796Z,64.63
2018-07-31T22:34:31.205Z,65.28
2018-07-31T22:37:00.529Z,65.73
2018-07-31T22:39:29.832Z,65.02
2018-07-31T22:41:59.263Z,65.30
2018-07-31T22:44:28.677Z,66.28
2018-07-31T22:46:58.170Z,67.17
2018-07-31T22:49:27.631Z,67.87
2018-07-31T22:51:57.054Z,68.11
2018-07-31T22:54:26.879Z,69.02
2018-07-31T22:56:57.408Z,69.20
2018-07-31T22:59:26.868Z,68.45
2018-07-31T23:01:57.063Z,69.67
2018-07-31T23:04:27.038Z,69.97
2018-07-31T23:06:57.094Z,69.78
2018-07-31T23:09:27.096Z,69.25
2018-07-31T23:11:57.008Z,69.08
2018-07-31T23:14:27.132Z,69.37
2018-07-31T23:16:57.198Z,68.50
2018-07-31T23:19:27.104Z,69.81
2018-07-31T23:21:57.099Z,69.53
2018-07-31T23:24:27.193Z,70.68
2018-07-31T23:26:57.214Z,72.02
2018-07-31T23:29:27.254Z,71.93
2018-07-31T23:31:57.134Z,72.17
2018-07-31T23:34:27.514Z,72.15
2018-07-31T23:36:57.495Z,72.42
2018-07-31T23:39:27.548Z,71.72
2018-07-31T23:41:57.550Z,72.28
2018-07-31T23:44:27.630Z,73.05
2018-07-31T23:46:57.523Z,72.85
2018-07-31T23:49:27.742Z,73.10
2018-07-31T23:51:57.835Z,72.51
2018-07-31T23:54:27.644Z,72.37
2018-07-31T23:56:57.750Z,73.22
2018-07-31T23:59:27.758Z,73.74
